Time;durP1;ratioP1;P1;durP2;ratioP2;P2;SDS_P1;SDS_P2;PMS_P1;PMS_P2;Temp;Humidity;BMP_temperature;BMP_pressure;BME280_temperature;BME280_humidity;BME280_pressure;Samples;Min_cycle;Max_cycle;Signal;HPM_P1;HPM_P2
2023/01/24 00:01:41;;;;;;;20.55;12.13;;;4.30;99.90;;;;;;5066393;28;20055;-50
2023/01/24 00:04:07;;;;;;;19.20;12.38;;;4.30;99.90;;;;;;5053412;28;20108;-46
2023/01/24 00:06:32;;;;;;;20.52;12.35;;;4.30;99.90;;;;;;5047809;28;20071;-47
2023/01/24 00:08:58;;;;;;;19.52;11.75;;;4.30;99.90;;;;;;5050323;28;20052;-48
2023/01/24 00:11:23;;;;;;;20.13;11.77;;;4.30;99.90;;;;;;5050430;28;20476;-46
2023/01/24 00:13:49;;;;;;;21.95;12.27;;;4.30;99.90;;;;;;5056141;28;20036;-47
2023/01/24 00:16:18;;;;;;;20.35;12.07;;;4.30;99.90;;;;;;5052410;28;20033;-46
2023/01/24 00:18:44;;;;;;;18.30;11.68;;;4.30;99.90;;;;;;5054021;28;20051;-49
2023/01/24 00:21:13;;;;;;;18.42;11.52;;;4.30;99.90;;;;;;5054467;28;20434;-50
2023/01/24 00:23:45;;;;;;;20.33;12.37;;;4.30;99.90;;;;;;5054322;28;20031;-48
2023/01/24 00:26:12;;;;;;;23.23;12.57;;;4.30;99.90;;;;;;5055577;28;20399;-54
2023/01/24 00:28:38;;;;;;;20.17;13.05;;;4.30;99.90;;;;;;5053761;28;20074;-52
2023/01/24 00:31:04;;;;;;;20.85;13.45;;;4.20;99.90;;;;;;5053922;28;20048;-49
2023/01/24 00:33:30;;;;;;;22.98;13.52;;;4.20;99.90;;;;;;5053837;28;20403;-49
2023/01/24 00:35:56;;;;;;;20.10;12.68;;;4.20;99.90;;;;;;5054130;28;20013;-46
2023/01/24 00:38:22;;;;;;;20.20;13.07;;;4.20;99.90;;;;;;5053751;28;20120;-48
2023/01/24 00:40:47;;;;;;;18.65;12.00;;;4.10;99.90;;;;;;5054120;28;20048;-46
2023/01/24 00:43:13;;;;;;;19.25;11.75;;;4.20;99.90;;;;;;5054029;28;20472;-46
2023/01/24 00:45:40;;;;;;;21.90;12.43;;;4.20;99.90;;;;;;5053654;28;20041;-46
2023/01/24 00:48:07;;;;;;;17.98;11.40;;;4.20;99.90;;;;;;5057782;28;20027;-45
2023/01/24 00:50:33;;;;;;;18.95;11.90;;;4.20;99.90;;;;;;5073560;28;20029;-45
2023/01/24 00:53:00;;;;;;;19.88;11.27;;;4.20;99.90;;;;;;5073638;28;20036;-46
2023/01/24 00:55:26;;;;;;;17.27;11.13;;;4.20;99.90;;;;;;5066111;28;20129;-45
2023/01/24 00:57:51;;;;;;;19.25;11.20;;;4.20;99.90;;;;;;5057644;28;20392;-46
2023/01/24 01:00:18;;;;;;;17.77;10.93;;;4.30;99.90;;;;;;5067958;28;20383;-46
2023/01/24 01:02:43;;;;;;;19.10;10.90;;;4.30;99.90;;;;;;5073954;28;20063;-45
2023/01/24 01:05:09;;;;;;;17.33;10.25;;;4.30;99.90;;;;;;5073188;28;20017;-47
2023/01/24 01:07:35;;;;;;;17.90;10.85;;;4.30;99.90;;;;;;5067807;28;20035;-46
2023/01/24 01:10:01;;;;;;;18.70;10.60;;;4.30;99.90;;;;;;5061570;28;20102;-45
2023/01/24 01:12:26;;;;;;;16.40;10.48;;;4.30;99.90;;;;;;5073446;28;20451;-45
2023/01/24 01:14:52;;;;;;;20.73;10.68;;;4.30;99.90;;;;;;5073207;28;20028;-47
2023/01/24 01:17:18;;;;;;;16.15;9.68;;;4.30;99.90;;;;;;5069596;28;20056;-45
2023/01/24 01:19:43;;;;;;;15.48;9.32;;;4.30;99.90;;;;;;5065598;28;20431;-46
2023/01/24 01:22:09;;;;;;;16.27;9.48;;;4.30;99.90;;;;;;5073268;28;20020;-45
2023/01/24 01:24:35;;;;;;;17.15;9.70;;;4.30;99.90;;;;;;5073391;28;20016;-46
2023/01/24 01:27:01;;;;;;;15.70;9.80;;;4.30;99.90;;;;;;5070932;28;20093;-49
2023/01/24 01:29:27;;;;;;;13.48;9.05;;;4.30;99.90;;;;;;5061606;28;20499;-46
2023/01/24 01:31:52;;;;;;;13.27;8.70;;;4.30;99.90;;;;;;5071588;28;20051;-47
2023/01/24 01:34:18;;;;;;;18.65;9.38;;;4.30;99.90;;;;;;5073224;28;20528;-49
2023/01/24 01:36:44;;;;;;;16.65;9.82;;;4.30;99.90;;;;;;5073040;28;20036;-46
2023/01/24 01:39:10;;;;;;;14.55;9.13;;;4.40;99.90;;;;;;5059054;28;20108;-51
2023/01/24 01:41:35;;;;;;;15.82;9.20;;;4.40;99.90;;;;;;5073138;28;20028;-48
2023/01/24 01:47:35;;;;;;;14.88;8.82;;;4.40;99.90;;;;;;5046019;28;20041;-50
2023/01/24 01:50:09;;;;;;;15.30;8.88;;;4.40;99.90;;;;;;5054659;28;20044;-47
2023/01/24 01:52:39;;;;;;;16.15;9.18;;;4.40;99.90;;;;;;5072677;28;20140;-51
2023/01/24 01:55:27;;;;;;;17.25;9.65;;;4.40;99.90;;;;;;5072633;28;20016;-52
2023/01/24 01:57:54;;;;;;;14.93;9.07;;;4.40;99.90;;;;;;5065715;28;20032;-49
2023/01/24 02:00:23;;;;;;;17.75;10.20;;;4.40;99.90;;;;;;5072630;28;20013;-49
2023/01/24 02:03:37;;;;;;;15.30;9.45;;;4.40;99.90;;;;;;5071529;28;20033;-48
2023/01/24 02:05:48;;;;;;;17.83;9.98;;;4.40;99.90;;;;;;5050010;28;20119;-51
2023/01/24 02:08:20;;;;;;;16.35;9.07;;;4.40;99.90;;;;;;5061900;28;20029;-52
2023/01/24 02:13:31;;;;;;;15.10;9.48;;;4.40;99.90;;;;;;5070599;28;20085;-49
2023/01/24 02:16:02;;;;;;;16.67;9.13;;;4.50;99.90;;;;;;5070781;28;20021;-50
2023/01/24 02:18:30;;;;;;;15.65;8.93;;;4.50;99.90;;;;;;5062322;28;20050;-47
2023/01/24 02:20:56;;;;;;;12.75;8.43;;;4.50;99.90;;;;;;5072293;28;20484;-45
2023/01/24 02:23:39;;;;;;;14.95;9.15;;;4.50;99.90;;;;;;5072116;28;20089;-48
2023/01/24 02:26:11;;;;;;;14.95;9.38;;;4.50;99.90;;;;;;5072214;28;20050;-55
2023/01/24 02:28:40;;;;;;;14.93;8.73;;;4.60;99.90;;;;;;5060504;28;20024;-47
2023/01/24 02:31:06;;;;;;;14.30;8.27;;;4.50;99.90;;;;;;5071891;28;20510;-49
2023/01/24 02:33:32;;;;;;;14.15;8.40;;;4.50;99.90;;;;;;5052903;28;20037;-45
2023/01/24 02:36:28;;;;;;;15.35;7.95;;;4.50;99.90;;;;;;5052945;28;20140;-47
2023/01/24 02:39:06;;;;;;;14.93;8.40;;;4.60;99.90;;;;;;5054097;28;20111;-46
2023/01/24 02:41:42;;;;;;;14.75;8.38;;;4.60;99.90;;;;;;5063322;28;20091;-48
2023/01/24 02:44:12;;;;;;;17.77;8.65;;;4.60;99.90;;;;;;5067429;28;20021;-45
2023/01/24 02:46:38;;;;;;;12.98;8.52;;;4.60;99.90;;;;;;5071599;28;20020;-48
2023/01/24 02:49:07;;;;;;;16.67;8.75;;;4.60;99.90;;;;;;5070051;28;20040;-45
2023/01/24 02:54:17;;;;;;;14.52;8.40;;;4.60;99.90;;;;;;5067277;28;20090;-45
2023/01/24 02:59:27;;;;;;;15.88;8.30;;;4.60;99.90;;;;;;5067920;28;20491;-45
2023/01/24 03:01:52;;;;;;;15.15;8.15;;;4.60;99.90;;;;;;5071326;28;20029;-51
2023/01/24 03:04:18;;;;;;;16.77;8.35;;;4.60;99.90;;;;;;5071354;28;20021;-45
2023/01/24 03:06:44;;;;;;;12.68;8.23;;;4.60;99.90;;;;;;5066001;28;20040;-48
2023/01/24 03:09:18;;;;;;;16.00;8.48;;;4.60;99.90;;;;;;5054424;28;20013;-46
2023/01/24 03:11:46;;;;;;;14.82;8.00;;;4.60;99.90;;;;;;5069184;28;20041;-45
2023/01/24 03:36:06;;;;;;;12.32;7.57;;;4.70;99.90;;;;;;5071216;28;20149;-46
2023/01/24 03:41:16;;;;;;;12.02;7.22;;;4.70;99.90;;;;;;5062654;28;20039;-48
2023/01/24 03:43:43;;;;;;;12.02;7.13;;;4.70;99.90;;;;;;5063722;28;20550;-45
2023/01/24 03:46:09;;;;;;;12.30;7.65;;;4.70;99.90;;;;;;5070828;28;20020;-44
2023/01/24 03:48:36;;;;;;;11.18;7.20;;;4.70;99.90;;;;;;5061280;28;20067;-48
2023/01/24 03:53:48;;;;;;;14.20;8.23;;;4.70;99.90;;;;;;5071124;28;20569;-45
2023/01/24 03:56:13;;;;;;;13.05;8.25;;;4.70;99.90;;;;;;5070783;28;20017;-46
2023/01/24 03:58:40;;;;;;;12.88;7.47;;;4.70;99.90;;;;;;5060930;28;20033;-44
2023/01/24 04:01:05;;;;;;;13.15;7.38;;;4.70;99.90;;;;;;5057789;28;20024;-45
2023/01/24 04:03:33;;;;;;;11.60;7.65;;;4.70;99.90;;;;;;5070952;28;20037;-56
2023/01/24 04:05:58;;;;;;;12.32;7.43;;;4.80;99.90;;;;;;5070680;28;20032;-44
2023/01/24 04:08:24;;;;;;;12.05;7.38;;;4.80;99.90;;;;;;5063480;28;20040;-44
2023/01/24 04:10:50;;;;;;;14.27;8.20;;;4.80;99.90;;;;;;5064470;28;20377;-45
2023/01/24 04:13:15;;;;;;;16.15;8.60;;;4.70;99.90;;;;;;5070446;28;20120;-44
2023/01/24 04:15:41;;;;;;;14.48;7.32;;;4.70;99.90;;;;;;5070710;28;20108;-45
2023/01/24 04:18:07;;;;;;;12.35;8.23;;;4.80;99.90;;;;;;5069130;28;20048;-50
2023/01/24 04:20:35;;;;;;;12.52;7.95;;;4.70;99.90;;;;;;5070433;28;20429;-50
2023/01/24 04:23:06;;;;;;;11.15;7.10;;;4.70;99.90;;;;;;5070222;28;20051;-46
2023/01/24 04:25:32;;;;;;;13.50;7.93;;;4.70;99.90;;;;;;5070521;28;20029;-45
2023/01/24 04:27:57;;;;;;;14.18;8.10;;;4.70;99.90;;;;;;5067793;28;20021;-46
2023/01/24 04:30:23;;;;;;;13.45;8.10;;;4.70;99.90;;;;;;5057486;28;20043;-50
2023/01/24 04:32:49;;;;;;;12.65;7.40;;;4.70;99.90;;;;;;5070243;28;20425;-53
2023/01/24 04:35:18;;;;;;;11.85;7.57;;;4.70;99.90;;;;;;5070142;28;20017;-50
2023/01/24 04:37:43;;;;;;;13.80;8.35;;;4.80;99.90;;;;;;5067910;28;20131;-56
2023/01/24 04:40:10;;;;;;;11.70;7.40;;;4.70;99.90;;;;;;5048879;28;20021;-44
2023/01/24 04:42:37;;;;;;;12.65;8.27;;;4.70;99.90;;;;;;5055273;28;20059;-45
2023/01/24 04:45:04;;;;;;;14.98;9.00;;;4.70;99.90;;;;;;5070152;28;20020;-44
2023/01/24 04:47:29;;;;;;;13.52;9.13;;;4.70;99.90;;;;;;5069890;28;20025;-45
2023/01/24 04:49:55;;;;;;;11.88;7.65;;;4.80;99.90;;;;;;5060320;28;20086;-49
2023/01/24 04:52:20;;;;;;;13.48;8.93;;;4.70;99.90;;;;;;5069872;28;20037;-44
2023/01/24 04:54:46;;;;;;;15.05;9.30;;;4.80;99.90;;;;;;5070125;28;20020;-46
2023/01/24 04:57:12;;;;;;;14.27;9.02;;;4.70;99.90;;;;;;5069876;28;20025;-48
2023/01/24 04:59:38;;;;;;;15.13;8.65;;;4.80;99.90;;;;;;5058524;28;20024;-50
2023/01/24 05:02:04;;;;;;;14.63;8.70;;;4.80;99.90;;;;;;5071355;28;20032;-52
2023/01/24 05:04:30;;;;;;;14.93;9.40;;;4.70;99.90;;;;;;5073714;28;20028;-47
2023/01/24 05:06:55;;;;;;;15.23;9.25;;;4.80;99.90;;;;;;5073554;28;20040;-46
2023/01/24 05:09:21;;;;;;;16.35;9.50;;;4.80;99.90;;;;;;5060350;28;20025;-45
2023/01/24 05:11:47;;;;;;;14.23;9.52;;;4.80;99.90;;;;;;5073569;28;20032;-50
2023/01/24 05:14:13;;;;;;;11.75;8.20;;;4.70;99.90;;;;;;5073406;28;20066;-47
2023/01/24 05:16:38;;;;;;;16.05;9.23;;;4.80;99.90;;;;;;5073284;28;20029;-50
2023/01/24 05:19:05;;;;;;;14.82;9.63;;;4.80;99.90;;;;;;5061596;28;20420;-52
2023/01/24 05:21:30;;;;;;;14.02;9.45;;;4.80;99.90;;;;;;5070786;28;20459;-50
2023/01/24 05:23:57;;;;;;;15.32;9.80;;;4.70;99.90;;;;;;5073402;28;20121;-52
2023/01/24 05:26:25;;;;;;;15.02;9.82;;;4.70;99.90;;;;;;5072995;28;20027;-48
2023/01/24 05:28:51;;;;;;;16.52;9.73;;;4.70;99.90;;;;;;5071526;28;20039;-45
2023/01/24 05:31:17;;;;;;;13.43;8.75;;;4.70;99.90;;;;;;5062598;28;20370;-51
2023/01/24 05:33:42;;;;;;;14.93;9.45;;;4.70;99.90;;;;;;5045111;28;20035;-50
2023/01/24 05:36:12;;;;;;;12.90;8.43;;;4.80;99.90;;;;;;5064485;28;20469;-56
2023/01/24 05:38:37;;;;;;;14.23;9.50;;;4.70;99.90;;;;;;5071439;28;20098;-47
2023/01/24 05:41:06;;;;;;;14.25;8.70;;;4.70;99.90;;;;;;5066320;28;20068;-54
2023/01/24 05:43:32;;;;;;;14.95;9.30;;;4.70;99.90;;;;;;5064865;28;20111;-45
2023/01/24 05:46:03;;;;;;;14.13;9.40;;;4.70;99.90;;;;;;5063996;28;20482;-48
2023/01/24 05:48:29;;;;;;;12.57;9.18;;;4.70;99.90;;;;;;5071664;28;20055;-48
2023/01/24 05:50:59;;;;;;;11.52;8.30;;;4.80;99.90;;;;;;5064214;28;20056;-48
2023/01/24 05:53:26;;;;;;;12.23;8.55;;;4.80;99.90;;;;;;5052217;28;20069;-46
2023/01/24 05:58:37;;;;;;;13.48;9.10;;;4.70;99.90;;;;;;4805693;23;20481;-47
2023/01/24 06:01:10;;;;;;;14.15;8.80;;;4.70;99.90;;;;;;5011400;28;20061;-51
2023/01/24 06:03:42;;;;;;;13.85;8.80;;;4.70;99.90;;;;;;5011244;28;20060;-45
2023/01/24 06:06:09;;;;;;;14.52;8.57;;;4.70;99.90;;;;;;5010840;28;20018;-46
2023/01/24 06:08:36;;;;;;;14.52;8.85;;;4.70;99.90;;;;;;5011081;28;20046;-46
2023/01/24 06:11:07;;;;;;;15.77;8.90;;;4.70;99.90;;;;;;5012327;28;20026;-40
2023/01/24 06:13:33;;;;;;;13.18;8.80;;;4.70;99.90;;;;;;5011938;28;20041;-44
2023/01/24 06:16:06;;;;;;;16.17;8.18;;;4.70;99.90;;;;;;5012820;28;20072;-51
2023/01/24 06:18:33;;;;;;;13.05;8.80;;;4.70;99.90;;;;;;5012765;28;20025;-53
2023/01/24 06:21:04;;;;;;;12.05;8.57;;;4.70;99.90;;;;;;4995113;28;20480;-42
2023/01/24 06:23:30;;;;;;;11.65;7.95;;;4.70;99.90;;;;;;5012455;28;20033;-53
2023/01/24 06:25:56;;;;;;;13.40;8.48;;;4.80;99.90;;;;;;5012565;28;20025;-45
2023/01/24 06:28:22;;;;;;;13.57;9.30;;;4.80;99.90;;;;;;4994704;28;20500;-46
2023/01/24 06:31:02;;;;;;;15.13;9.82;;;4.80;99.90;;;;;;5009531;28;20064;-45
2023/01/24 06:33:36;;;;;;;;;;;4.80;99.90;;;;;;5012161;28;20033;-46
2023/01/24 06:36:10;;;;;;;12.70;8.80;;;4.80;99.90;;;;;;5007895;28;19905;-40
2023/01/24 06:38:36;;;;;;;13.55;8.25;;;4.80;99.90;;;;;;4998025;28;20033;-48
2023/01/24 06:41:02;;;;;;;13.07;8.57;;;4.80;99.90;;;;;;4992583;28;20030;-40
2023/01/24 06:43:28;;;;;;;15.68;9.80;;;4.80;99.90;;;;;;4993988;28;20436;-48
2023/01/24 06:45:55;;;;;;;14.00;9.52;;;4.80;99.90;;;;;;5001546;28;20022;-55
2023/01/24 06:48:21;;;;;;;14.65;9.80;;;4.80;99.90;;;;;;4999343;28;20114;-42
2023/01/24 06:50:47;;;;;;;18.45;10.23;;;4.80;99.90;;;;;;4992386;28;20453;-47
2023/01/24 06:53:14;;;;;;;14.23;9.73;;;4.80;99.90;;;;;;4992470;28;20108;-47
2023/01/24 06:55:43;;;;;;;13.75;9.23;;;4.80;99.90;;;;;;4994856;28;20081;-50
2023/01/24 06:58:09;;;;;;;15.20;9.95;;;4.80;99.90;;;;;;4989949;28;20061;-52
2023/01/24 07:00:35;;;;;;;15.73;10.50;;;4.80;99.90;;;;;;4990833;28;20042;-43
2023/01/24 07:03:08;;;;;;;16.35;9.85;;;4.80;99.90;;;;;;4992105;28;20835;-55
2023/01/24 07:05:35;;;;;;;16.63;9.75;;;4.80;99.90;;;;;;4991525;28;20021;-55
2023/01/24 07:08:01;;;;;;;15.90;10.15;;;4.80;99.90;;;;;;5011259;28;20061;-41
2023/01/24 07:10:28;;;;;;;17.83;10.02;;;4.80;99.90;;;;;;5011369;28;20017;-50
2023/01/24 07:12:54;;;;;;;19.48;10.45;;;4.80;99.90;;;;;;4994512;28;20081;-48
2023/01/24 07:15:20;;;;;;;17.17;10.77;;;4.80;99.90;;;;;;4998073;28;20022;-45
2023/01/24 07:17:45;;;;;;;21.25;11.02;;;4.80;99.90;;;;;;4991589;28;20042;-50
2023/01/24 07:20:12;;;;;;;14.90;9.77;;;4.80;99.90;;;;;;4991805;28;20389;-39
2023/01/24 07:22:39;;;;;;;15.55;9.52;;;4.80;99.90;;;;;;4974062;28;20034;-47
2023/01/24 07:25:18;;;;;;;16.27;10.07;;;4.80;99.90;;;;;;5003341;28;20075;-39
2023/01/24 07:27:44;;;;;;;18.02;11.10;;;4.80;99.90;;;;;;4998500;28;20066;-38
2023/01/24 07:30:12;;;;;;;15.20;9.55;;;4.80;99.90;;;;;;4991147;28;20026;-36
2023/01/24 07:32:38;;;;;;;20.63;10.23;;;4.80;99.90;;;;;;4990864;28;20034;-41
2023/01/24 07:35:04;;;;;;;15.35;10.00;;;4.80;99.90;;;;;;5000427;28;20014;-36
2023/01/24 07:37:30;;;;;;;15.70;9.65;;;4.80;99.90;;;;;;4990710;28;20443;-37
2023/01/24 07:39:55;;;;;;;16.10;10.18;;;4.80;99.90;;;;;;4990786;28;20488;-37
2023/01/24 07:42:21;;;;;;;17.73;11.27;;;4.80;99.90;;;;;;4990891;28;20101;-39
2023/01/24 07:44:47;;;;;;;15.38;9.43;;;4.80;99.90;;;;;;4983376;28;20026;-38
2023/01/24 07:47:12;;;;;;;16.38;9.20;;;4.80;99.90;;;;;;5021664;28;20040;-37
2023/01/24 07:49:38;;;;;;;15.68;9.10;;;4.80;99.90;;;;;;5010700;28;20022;-42
2023/01/24 07:52:04;;;;;;;15.35;9.18;;;4.90;99.90;;;;;;5010753;28;20068;-45
2023/01/24 07:54:29;;;;;;;12.75;8.23;;;4.90;99.90;;;;;;5010819;28;20053;-37
2023/01/24 07:56:55;;;;;;;14.48;8.85;;;4.90;99.90;;;;;;5010411;28;20026;-48
2023/01/24 07:59:21;;;;;;;15.50;9.43;;;4.90;99.90;;;;;;5010551;28;20041;-37
2023/01/24 08:01:46;;;;;;;14.82;9.43;;;4.90;99.90;;;;;;5010289;28;20022;-49
2023/01/24 08:04:12;;;;;;;18.73;9.52;;;4.90;99.90;;;;;;5010354;28;20018;-50
2023/01/24 08:07:16;;;;;;;13.02;8.35;;;4.90;99.90;;;;;;5010327;28;20033;-48
2023/01/24 08:09:26;;;;;;;17.70;9.00;;;4.90;99.90;;;;;;5010430;28;20040;-55
2023/01/24 08:11:52;;;;;;;14.73;9.18;;;4.90;99.90;;;;;;5010247;28;20465;-45
2023/01/24 08:14:17;;;;;;;15.35;9.10;;;4.90;99.90;;;;;;5010700;28;20061;-39
2023/01/24 08:16:43;;;;;;;15.95;8.80;;;4.90;99.90;;;;;;5010525;28;20022;-42
2023/01/24 08:19:09;;;;;;;15.05;8.60;;;4.90;99.90;;;;;;5010075;28;20380;-38
2023/01/24 08:21:34;;;;;;;15.68;9.15;;;4.90;99.90;;;;;;5010500;28;20097;-50
2023/01/24 08:24:00;;;;;;;16.25;8.93;;;4.90;99.90;;;;;;5010822;28;20034;-49
2023/01/24 08:26:25;;;;;;;13.88;8.70;;;5.00;99.90;;;;;;5010373;28;20050;-44
2023/01/24 08:28:51;;;;;;;14.95;9.55;;;5.00;99.90;;;;;;5009899;28;20395;-48
2023/01/24 08:31:17;;;;;;;14.93;8.95;;;5.00;99.90;;;;;;5010363;28;20030;-37
2023/01/24 08:33:43;;;;;;;13.27;8.20;;;5.00;99.90;;;;;;5017951;28;20034;-41
2023/01/24 08:36:08;;;;;;;16.25;9.15;;;5.00;99.90;;;;;;5010531;28;20026;-38
2023/01/24 08:38:34;;;;;;;19.15;10.18;;;5.00;99.90;;;;;;5014427;28;20365;-43
2023/01/24 08:41:03;;;;;;;19.80;9.30;;;5.00;99.90;;;;;;5014112;28;20160;-52
2023/01/24 08:43:29;;;;;;;13.55;8.70;;;5.00;99.90;;;;;;5013870;28;20113;-46
2023/01/24 08:45:55;;;;;;;16.13;9.32;;;5.00;99.90;;;;;;5008389;28;20255;-38
2023/01/24 08:48:21;;;;;;;17.30;8.15;;;5.10;99.90;;;;;;5019975;28;20508;-52
2023/01/24 08:50:46;;;;;;;13.73;8.35;;;5.10;99.90;;;;;;5014413;28;20431;-41
2023/01/24 08:53:12;;;;;;;13.23;8.52;;;5.10;99.90;;;;;;5013926;28;20034;-49
2023/01/24 08:55:38;;;;;;;13.10;8.25;;;5.10;99.90;;;;;;5013932;28;20022;-47
2023/01/24 08:58:04;;;;;;;14.32;8.52;;;5.10;99.90;;;;;;5013912;28;20030;-46
2023/01/24 09:00:30;;;;;;;16.40;9.15;;;5.10;99.90;;;;;;5017039;28;20087;-38
2023/01/24 09:03:00;;;;;;;18.50;8.15;;;5.20;99.90;;;;;;5024991;28;20125;-45
2023/01/24 09:05:26;;;;;;;12.80;7.80;;;5.20;99.90;;;;;;5028359;28;20018;-39
2023/01/24 09:07:52;;;;;;;11.73;6.72;;;5.20;99.90;;;;;;5014579;28;20030;-43
2023/01/24 09:10:17;;;;;;;12.95;8.55;;;5.20;99.90;;;;;;5025303;28;20025;-45
2023/01/24 09:12:43;;;;;;;14.80;8.65;;;5.20;99.90;;;;;;5028677;28;20387;-43
2023/01/24 09:15:09;;;;;;;13.25;7.57;;;5.20;99.90;;;;;;5025044;28;20030;-47
2023/01/24 09:17:36;;;;;;;14.75;7.93;;;5.20;99.90;;;;;;5029282;28;20091;-43
2023/01/24 09:20:01;;;;;;;16.10;8.13;;;5.20;99.90;;;;;;5004993;28;20109;-45
2023/01/24 09:22:27;;;;;;;13.10;7.93;;;5.20;99.90;;;;;;5027015;28;20105;-45
2023/01/24 09:24:53;;;;;;;14.48;8.27;;;5.20;99.90;;;;;;5025372;28;20032;-41
2023/01/24 09:27:18;;;;;;;16.33;8.10;;;5.20;99.90;;;;;;5026812;28;20049;-42
2023/01/24 09:29:44;;;;;;;12.55;7.43;;;5.30;99.90;;;;;;5031133;28;20037;-42
2023/01/24 09:32:10;;;;;;;12.35;8.00;;;5.20;99.90;;;;;;5023405;28;20074;-47
2023/01/24 09:34:35;;;;;;;13.05;7.07;;;5.30;99.90;;;;;;5026652;28;20096;-43
2023/01/24 09:37:01;;;;;;;12.15;7.50;;;5.20;99.90;;;;;;5023946;28;20025;-40
2023/01/24 09:39:26;;;;;;;14.75;8.38;;;5.30;99.90;;;;;;5027494;28;20022;-43
2023/01/24 09:42:29;;;;;;;14.40;8.38;;;5.20;99.90;;;;;;5008884;28;20013;-39
2023/01/24 09:45:27;;;;;;;11.73;7.22;;;5.30;99.90;;;;;;5023548;28;20034;-43
2023/01/24 09:47:58;;;;;;;13.18;8.30;;;5.30;99.90;;;;;;5004572;28;20112;-44
2023/01/24 09:50:33;;;;;;;12.80;7.97;;;5.30;99.90;;;;;;5022911;28;20021;-55
2023/01/24 09:52:59;;;;;;;13.30;8.30;;;5.30;99.90;;;;;;5016281;28;20036;-42
2023/01/24 09:55:29;;;;;;;15.93;8.10;;;5.40;99.90;;;;;;5024700;28;20029;-38
2023/01/24 09:58:31;;;;;;;12.52;7.85;;;5.30;99.90;;;;;;5020763;28;20427;-40
2023/01/24 10:01:08;;;;;;;11.40;6.90;;;5.40;99.90;;;;;;5002782;28;20041;-50
2023/01/24 10:03:35;;;;;;;11.68;7.20;;;5.30;99.90;;;;;;5017832;28;20065;-56
2023/01/24 10:06:09;;;;;;;13.77;7.88;;;5.30;99.90;;;;;;5024573;28;20544;-52
2023/01/24 10:08:50;;;;;;;12.95;8.07;;;5.30;99.90;;;;;;5003951;28;20034;-41
2023/01/24 10:11:49;;;;;;;15.82;7.57;;;5.30;99.90;;;;;;5019659;28;20508;-38
2023/01/24 10:14:42;;;;;;;14.07;7.95;;;5.30;99.90;;;;;;4972395;28;20091;-40
2023/01/24 10:17:29;;;;;;;12.75;7.13;;;5.30;99.90;;;;;;5024719;28;20042;-39
2023/01/24 10:20:06;;;;;;;12.32;7.63;;;5.40;99.90;;;;;;5020986;28;20034;-39
2023/01/24 10:22:59;;;;;;;12.10;7.25;;;5.50;99.90;;;;;;5026098;28;20049;-41
2023/01/24 10:25:46;;;;;;;11.07;6.65;;;5.40;99.90;;;;;;5018368;28;20022;-43
2023/01/24 10:28:23;;;;;;;8.90;5.70;;;5.40;99.90;;;;;;5012111;28;20054;-43
2023/01/24 10:30:52;;;;;;;11.90;6.70;;;5.40;99.90;;;;;;5011421;28;20025;-39
2023/01/24 10:33:19;;;;;;;9.68;6.22;;;5.40;99.90;;;;;;5026786;28;20060;-37
2023/01/24 10:36:05;;;;;;;10.15;6.80;;;5.40;99.90;;;;;;5025425;28;20037;-43
2023/01/24 10:38:32;;;;;;;11.20;6.50;;;5.50;99.90;;;;;;5026057;28;20128;-40
2023/01/24 10:41:16;;;;;;;10.25;6.25;;;5.50;99.90;;;;;;5021193;28;20013;-41
2023/01/24 10:43:44;;;;;;;11.35;6.97;;;5.50;99.90;;;;;;5024433;28;20017;-37
2023/01/24 10:46:43;;;;;;;13.05;7.80;;;5.50;99.90;;;;;;5021162;28;20025;-38
2023/01/24 10:49:19;;;;;;;11.63;7.13;;;5.60;99.90;;;;;;5021317;28;20029;-45
2023/01/24 10:52:11;;;;;;;11.13;6.57;;;5.60;99.90;;;;;;5023710;28;20468;-38
2023/01/24 10:54:46;;;;;;;11.65;6.85;;;5.60;99.90;;;;;;5016232;28;20045;-41
2023/01/24 10:57:33;;;;;;;11.32;6.60;;;5.70;99.90;;;;;;5023526;28;20383;-37
2023/01/24 11:00:30;;;;;;;11.00;7.20;;;5.80;99.90;;;;;;5022154;28;20069;-45
2023/01/24 11:03:19;;;;;;;11.52;7.03;;;5.80;99.90;;;;;;5022625;28;20030;-48
2023/01/24 11:05:50;;;;;;;11.55;6.85;;;5.80;99.90;;;;;;5023633;28;20025;-42
2023/01/24 11:08:24;;;;;;;10.82;7.55;;;5.80;99.90;;;;;;5024445;28;20046;-47
2023/01/24 11:10:53;;;;;;;13.57;7.00;;;5.90;99.90;;;;;;5023800;28;20120;-42
2023/01/24 11:13:25;;;;;;;9.43;6.10;;;5.80;99.90;;;;;;5020683;28;20026;-46
2023/01/24 11:15:57;;;;;;;14.00;7.13;;;5.90;99.90;;;;;;5026941;28;20083;-53
2023/01/24 11:18:27;;;;;;;10.18;6.55;;;5.80;99.90;;;;;;5020772;28;20032;-38
2023/01/24 11:21:13;;;;;;;12.48;7.28;;;5.80;99.90;;;;;;5004387;28;20072;-38
2023/01/24 11:23:39;;;;;;;13.45;6.68;;;5.70;99.90;;;;;;5019656;28;20447;-39
2023/01/24 11:26:18;;;;;;;14.82;7.20;;;5.60;99.90;;;;;;5019558;28;20053;-46
2023/01/24 11:28:44;;;;;;;11.13;7.18;;;5.60;99.90;;;;;;5020394;28;20741;-36
2023/01/24 11:31:26;;;;;;;11.20;6.70;;;5.60;99.90;;;;;;5026246;28;20100;-45
2023/01/24 11:33:58;;;;;;;16.67;7.30;;;5.60;99.90;;;;;;5011430;28;20036;-43
2023/01/24 11:37:02;;;;;;;13.73;7.43;;;5.60;99.90;;;;;;5010996;28;20018;-47
2023/01/24 11:39:48;;;;;;;12.43;7.53;;;5.70;99.90;;;;;;4978400;28;20066;-42
2023/01/24 11:42:25;;;;;;;11.15;6.88;;;5.70;99.90;;;;;;4988060;28;20113;-37
2023/01/24 11:45:02;;;;;;;13.07;7.80;;;5.80;99.90;;;;;;5004575;28;20037;-42
2023/01/24 11:47:39;;;;;;;11.02;7.10;;;5.70;99.90;;;;;;5027637;28;20049;-39
2023/01/24 11:50:31;;;;;;;13.13;7.65;;;5.80;99.90;;;;;;5018299;28;20060;-45
2023/01/24 11:53:21;;;;;;;11.65;7.35;;;5.80;99.90;;;;;;5010929;28;20125;-36
2023/01/24 11:56:01;;;;;;;10.52;5.72;;;5.90;99.90;;;;;;5000451;28;20380;-35
2023/01/24 11:58:59;;;;;;;9.32;5.75;;;5.70;99.90;;;;;;5018462;28;20433;-37
2023/01/24 12:01:39;;;;;;;9.52;6.25;;;5.70;99.90;;;;;;4964795;28;20112;-52
2023/01/24 12:04:05;;;;;;;11.45;6.55;;;5.70;99.90;;;;;;5005832;28;20029;-36
2023/01/24 12:06:59;;;;;;;10.52;5.40;;;5.70;99.90;;;;;;5009926;28;20423;-36
2023/01/24 12:09:29;;;;;;;9.68;6.22;;;5.60;99.90;;;;;;5012818;28;20052;-42
2023/01/24 12:12:01;;;;;;;10.32;6.10;;;5.60;99.90;;;;;;5013640;28;20377;-36
2023/01/24 12:14:32;;;;;;;10.90;6.38;;;5.70;99.90;;;;;;5010784;28;20030;-38
2023/01/24 12:17:19;;;;;;;9.70;5.88;;;5.70;99.90;;;;;;4997782;28;20117;-47
2023/01/24 12:20:12;;;;;;;10.35;5.95;;;5.70;99.90;;;;;;4999658;28;20497;-45
2023/01/24 12:22:39;;;;;;;8.40;6.05;;;5.70;99.90;;;;;;4992813;28;20441;-56
2023/01/24 12:25:25;;;;;;;9.73;6.07;;;5.70;99.90;;;;;;4998465;28;20030;-47
2023/01/24 12:27:54;;;;;;;7.85;5.45;;;5.70;99.90;;;;;;5009519;28;20049;-39
2023/01/24 12:30:30;;;;;;;10.85;5.47;;;5.80;99.90;;;;;;5009579;28;20033;-53
2023/01/24 12:33:31;;;;;;;10.13;5.38;;;5.70;99.90;;;;;;5005182;28;20030;-50
2023/01/24 12:36:05;;;;;;;7.40;5.43;;;5.80;99.90;;;;;;5010573;28;20018;-42
2023/01/24 12:38:43;;;;;;;7.70;5.22;;;5.70;99.90;;;;;;5016268;28;20022;-45
2023/01/24 12:41:30;;;;;;;8.57;5.43;;;5.70;99.90;;;;;;5029432;28;20467;-40
2023/01/24 12:44:28;;;;;;;8.75;5.38;;;5.70;99.90;;;;;;5018901;28;20036;-40
2023/01/24 12:47:25;;;;;;;7.20;5.40;;;5.90;99.90;;;;;;5019021;28;20559;-53
2023/01/24 12:50:04;;;;;;;8.02;5.78;;;6.00;99.90;;;;;;5016452;28;20719;-56
2023/01/24 12:52:35;;;;;;;16.73;6.38;;;6.00;99.90;;;;;;5022592;28;20522;-51
2023/01/24 12:55:25;;;;;;;8.25;5.80;;;6.00;99.90;;;;;;5012324;28;20030;-47
2023/01/24 12:58:18;;;;;;;7.93;5.85;;;6.00;99.90;;;;;;5026077;28;20108;-52
2023/01/24 13:00:54;;;;;;;9.82;6.30;;;6.00;99.90;;;;;;5025153;28;20026;-57
2023/01/24 13:03:32;;;;;;;9.57;6.25;;;6.00;99.90;;;;;;5031909;28;20017;-53
2023/01/24 13:06:13;;;;;;;10.23;6.70;;;6.00;99.90;;;;;;5013112;28;20108;-49
2023/01/24 13:08:49;;;;;;;10.25;6.35;;;6.00;99.90;;;;;;5028316;28;20496;-54
2023/01/24 13:11:23;;;;;;;8.80;6.18;;;6.00;99.90;;;;;;5013833;28;20026;-41
2023/01/24 13:14:31;;;;;;;9.13;6.35;;;6.00;99.90;;;;;;5013765;28;20084;-56
2023/01/24 13:17:20;;;;;;;8.70;5.82;;;6.10;99.90;;;;;;5011271;28;20432;-54
2023/01/24 13:20:00;;;;;;;8.95;6.18;;;6.10;99.90;;;;;;5013589;28;20022;-54
2023/01/24 13:22:45;;;;;;;9.20;6.03;;;6.00;99.90;;;;;;5025479;28;20060;-48
2023/01/24 13:25:33;;;;;;;10.20;6.43;;;6.00;99.90;;;;;;5022339;28;20033;-47
2023/01/24 13:28:50;;;;;;;10.27;5.65;;;6.00;99.90;;;;;;5027316;28;20029;-46
2023/01/24 13:31:49;;;;;;;10.02;5.85;;;6.00;99.90;;;;;;4983300;28;20030;-52
2023/01/24 13:34:18;;;;;;;9.05;5.45;;;6.10;99.90;;;;;;5017932;28;20153;-38
2023/01/24 13:36:49;;;;;;;8.63;6.00;;;6.00;99.90;;;;;;5025841;28;20120;-50
2023/01/24 13:39:38;;;;;;;10.00;6.40;;;6.00;99.90;;;;;;5025209;28;20053;-41
2023/01/24 13:42:20;;;;;;;13.07;6.38;;;6.00;99.90;;;;;;5024987;28;20055;-41
2023/01/24 13:44:46;;;;;;;12.00;7.32;;;6.00;99.90;;;;;;5023491;28;20022;-38
2023/01/24 13:47:15;;;;;;;9.77;6.88;;;6.00;99.90;;;;;;5025616;28;20056;-49
2023/01/24 13:49:50;;;;;;;11.40;7.65;;;6.00;99.90;;;;;;5025492;28;20010;-49